createdAt,value
2022-11-06T00:09:38.306Z,4.10
2022-11-06T00:19:59.751Z,3.80
2022-11-06T00:30:21.207Z,3.70
2022-11-06T00:40:42.622Z,3.43
2022-11-06T00:51:04.514Z,3.60
2022-11-06T01:22:36.241Z,3.90
2022-11-06T01:32:57.651Z,3.63
2022-11-06T01:43:23.428Z,4.17
2022-11-06T01:53:45.509Z,3.63
2022-11-06T02:04:25.411Z,3.28
2022-11-06T02:15:23.126Z,3.10
2022-11-06T02:25:59.735Z,3.28
2022-11-06T02:36:28.991Z,3.13
2022-11-06T02:46:57.232Z,3.47
2022-11-06T02:57:20.621Z,3.20
2022-11-06T03:07:50.296Z,3.58
2022-11-06T03:18:35.471Z,3.13
2022-11-06T03:29:12.550Z,3.08
2022-11-06T03:39:39.992Z,3.05
2022-11-06T03:50:16.803Z,3.30
2022-11-06T04:00:41.942Z,2.90
2022-11-06T04:11:24.998Z,3.10
2022-11-06T04:21:57.255Z,3.17
2022-11-06T04:32:26.765Z,2.95
2022-11-06T04:43:08.004Z,3.15
2022-11-06T04:53:31.784Z,3.10
2022-11-06T05:03:53.199Z,2.58
2022-11-06T05:14:14.701Z,2.83
2022-11-06T05:24:36.142Z,3.10
2022-11-06T05:34:57.569Z,3.00
2022-11-06T05:45:19.049Z,2.87
2022-11-06T05:55:40.535Z,2.83
2022-11-06T06:06:01.947Z,2.50
2022-11-06T06:16:23.394Z,2.20
2022-11-06T06:26:45.016Z,2.30
2022-11-06T06:37:06.469Z,2.23
2022-11-06T06:47:27.891Z,2.30
2022-11-06T06:57:55.059Z,2.40
2022-11-06T07:08:16.680Z,2.67
2022-11-06T07:18:39.610Z,2.33
2022-11-06T07:29:01.021Z,2.50
2022-11-06T07:39:22.472Z,2.20
2022-11-06T07:49:49.692Z,2.13
2022-11-06T08:00:13.408Z,2.05
2022-11-06T08:10:37.679Z,2.25
2022-11-06T08:20:59.552Z,2.00
2022-11-06T08:31:21.130Z,1.70
2022-11-06T08:41:42.878Z,1.87
2022-11-06T08:52:04.349Z,1.60
2022-11-06T09:02:25.887Z,1.80
2022-11-06T09:12:47.343Z,1.70
2022-11-06T09:23:10.579Z,1.90
2022-11-06T09:33:32.348Z,1.60
2022-11-06T09:44:17.572Z,1.80
2022-11-06T09:54:50.744Z,1.80
2022-11-06T10:05:47.713Z,1.85
2022-11-06T10:16:36.689Z,1.50
2022-11-06T10:26:58.261Z,1.52
2022-11-06T10:37:26.147Z,1.30
2022-11-06T10:47:54.385Z,1.45
2022-11-06T10:58:22.459Z,1.40
2022-11-06T11:08:49.594Z,1.70
2022-11-06T11:19:36.533Z,1.27
2022-11-06T11:29:58.308Z,1.20
2022-11-06T11:50:58.035Z,1.40
2022-11-06T12:01:31.449Z,1.30
2022-11-06T12:11:55.579Z,1.13
2022-11-06T12:22:33.543Z,1.40
2022-11-06T12:33:27.336Z,0.95
2022-11-06T12:44:02.016Z,1.80
2022-11-06T12:54:38.775Z,0.98
2022-11-06T13:05:03.200Z,1.25
2022-11-06T13:15:36.716Z,1.67
2022-11-06T13:26:26.201Z,1.30
2022-11-06T13:36:48.660Z,1.25
2022-11-06T13:47:20.072Z,1.38
2022-11-06T13:58:06.162Z,1.10
2022-11-06T14:08:30.062Z,1.10
2022-11-06T14:18:56.544Z,1.10
2022-11-06T14:29:27.239Z,1.30
2022-11-06T14:39:54.807Z,1.10
2022-11-06T14:50:19.373Z,1.20
2022-11-06T15:01:10.073Z,1.05
2022-11-06T15:11:34.980Z,1.37
2022-11-06T15:22:05.287Z,1.00
2022-11-06T15:32:30.250Z,1.55
2022-11-06T15:42:52.024Z,1.60
2022-11-06T16:03:53.959Z,1.50
2022-11-06T16:14:15.639Z,1.70
2022-11-06T16:24:52.235Z,1.58
2022-11-06T16:35:31.803Z,1.90
2022-11-06T16:45:56.019Z,2.10
2022-11-06T16:56:23.467Z,2.22
2022-11-06T17:06:45.321Z,2.30
2022-11-06T17:27:28.116Z,2.50
2022-11-06T17:37:49.551Z,2.07
2022-11-06T17:48:11.130Z,2.90
2022-11-06T17:58:33.690Z,2.55
2022-11-06T18:08:59.568Z,2.67
2022-11-06T18:19:23.319Z,2.65
2022-11-06T18:29:44.848Z,2.92
2022-11-06T18:40:06.890Z,2.57
2022-11-06T18:50:28.454Z,2.53
2022-11-06T19:00:49.900Z,2.93
2022-11-06T19:11:14.929Z,2.53
2022-11-06T19:21:36.438Z,2.30
2022-11-06T19:32:01.898Z,2.17
2022-11-06T19:42:23.315Z,1.80
2022-11-06T19:52:50.943Z,1.67
2022-11-06T20:03:16.758Z,1.77
2022-11-06T20:13:39.416Z,1.77
2022-11-06T20:24:00.899Z,1.38
2022-11-06T20:34:22.326Z,1.23
2022-11-06T20:44:43.849Z,1.33
2022-11-06T20:55:05.734Z,1.80
2022-11-06T21:05:27.154Z,1.70
2022-11-06T21:15:48.723Z,1.70
2022-11-06T21:26:15.906Z,2.00
2022-11-06T21:36:37.981Z,1.80
2022-11-06T21:46:59.504Z,2.10
2022-11-06T21:57:20.919Z,2.03
2022-11-06T22:07:42.342Z,2.07
2022-11-06T22:18:03.873Z,2.43
2022-11-06T22:28:25.364Z,2.40
2022-11-06T22:38:47.449Z,2.43
2022-11-06T22:49:09.092Z,2.80
2022-11-06T22:59:30.496Z,2.73
2022-11-06T23:09:51.917Z,3.00
2022-11-06T23:20:13.328Z,3.20
2022-11-06T23:30:34.806Z,3.07
2022-11-06T23:40:56.216Z,3.63
2022-11-06T23:51:18.164Z,3.40
